Rebecq-Rognon, Belgium
Current Conditions -  °F | °C
As of 7:25 AM on Thursday 27 Nov 2014 (Local Time) from EBCV Reporting Station
Broken Clouds Broken Clouds  
Wind Chill: 45°   Ceiling: 4700
Heat Index: 48°   Visibility: 4mi
Dew Point: 48°   Wind: 7mph
Humidity: 100%   Direction: 150°SSE
Pressure: 29.74"   Gusts: NA
Location:  50.65°N, 4.11°E
Report Text: EBCV 270625Z AUTO 15006KT 6000 SCT007/// BKN047/// 09/09 Q1007 GRN
Loading
Personal Weather Stations






























Interactive Weather Map New forecast layout! Learn more

10-Day Weather Forecast

Advertisements
Track Severe Weather on mobile